sensor_id;sensor_type;location;lat;lon;timestamp;P1;durP1;ratioP1;P2;durP2;ratioP2
57441;SDS011;43284;47.042;15.498;2023-09-18T00:00:40;8.38;;;5.72;;
57441;SDS011;43284;47.042;15.498;2023-09-18T00:03:07;10.95;;;5.20;;
57441;SDS011;43284;47.042;15.498;2023-09-18T00:05:33;8.77;;;5.40;;
57441;SDS011;43284;47.042;15.498;2023-09-18T00:07:59;10.27;;;6.32;;
57441;SDS011;43284;47.042;15.498;2023-09-18T00:10:26;11.52;;;6.53;;
57441;SDS011;43284;47.042;15.498;2023-09-18T00:12:54;8.70;;;5.50;;
57441;SDS011;43284;47.042;15.498;2023-09-18T00:15:19;9.00;;;5.55;;
57441;SDS011;43284;47.042;15.498;2023-09-18T00:17:45;12.15;;;6.05;;
57441;SDS011;43284;47.042;15.498;2023-09-18T00:20:11;8.05;;;5.53;;
57441;SDS011;43284;47.042;15.498;2023-09-18T00:22:37;10.38;;;5.88;;
57441;SDS011;43284;47.042;15.498;2023-09-18T00:25:02;9.57;;;5.80;;
57441;SDS011;43284;47.042;15.498;2023-09-18T00:27:28;9.27;;;5.82;;
57441;SDS011;43284;47.042;15.498;2023-09-18T00:29:54;9.48;;;5.95;;
57441;SDS011;43284;47.042;15.498;2023-09-18T00:32:20;9.45;;;5.50;;
57441;SDS011;43284;47.042;15.498;2023-09-18T00:34:46;8.95;;;5.55;;
57441;SDS011;43284;47.042;15.498;2023-09-18T00:37:11;9.77;;;6.22;;
57441;SDS011;43284;47.042;15.498;2023-09-18T00:39:37;9.02;;;5.68;;
57441;SDS011;43284;47.042;15.498;2023-09-18T00:42:03;10.70;;;5.72;;
57441;SDS011;43284;47.042;15.498;2023-09-18T00:44:29;12.57;;;6.25;;
57441;SDS011;43284;47.042;15.498;2023-09-18T00:46:54;9.20;;;6.03;;
57441;SDS011;43284;47.042;15.498;2023-09-18T00:49:21;12.40;;;6.68;;
57441;SDS011;43284;47.042;15.498;2023-09-18T00:51:49;10.45;;;6.30;;
57441;SDS011;43284;47.042;15.498;2023-09-18T00:54:16;9.60;;;6.18;;
57441;SDS011;43284;47.042;15.498;2023-09-18T00:56:44;11.18;;;6.93;;
57441;SDS011;43284;47.042;15.498;2023-09-18T00:59:13;12.15;;;6.40;;
57441;SDS011;43284;47.042;15.498;2023-09-18T01:01:40;12.55;;;7.03;;
57441;SDS011;43284;47.042;15.498;2023-09-18T01:04:07;10.07;;;5.88;;
57441;SDS011;43284;47.042;15.498;2023-09-18T01:06:33;9.15;;;6.38;;
57441;SDS011;43284;47.042;15.498;2023-09-18T01:08:58;11.20;;;6.45;;
57441;SDS011;43284;47.042;15.498;2023-09-18T01:14:22;12.02;;;6.53;;
57441;SDS011;43284;47.042;15.498;2023-09-18T01:16:55;9.25;;;6.32;;
57441;SDS011;43284;47.042;15.498;2023-09-18T01:19:38;11.48;;;5.78;;
57441;SDS011;43284;47.042;15.498;2023-09-18T01:22:09;9.52;;;5.63;;
57441;SDS011;43284;47.042;15.498;2023-09-18T01:24:36;8.77;;;5.75;;
57441;SDS011;43284;47.042;15.498;2023-09-18T01:27:03;9.13;;;5.65;;
57441;SDS011;43284;47.042;15.498;2023-09-18T01:29:29;11.23;;;6.20;;
57441;SDS011;43284;47.042;15.498;2023-09-18T01:31:56;9.68;;;6.05;;
57441;SDS011;43284;47.042;15.498;2023-09-18T01:34:25;9.70;;;6.28;;
57441;SDS011;43284;47.042;15.498;2023-09-18T01:36:53;9.32;;;6.53;;
57441;SDS011;43284;47.042;15.498;2023-09-18T01:39:22;9.02;;;5.75;;
57441;SDS011;43284;47.042;15.498;2023-09-18T01:41:49;10.18;;;5.90;;
57441;SDS011;43284;47.042;15.498;2023-09-18T01:44:15;8.88;;;5.80;;
57441;SDS011;43284;47.042;15.498;2023-09-18T01:46:41;10.77;;;5.70;;
57441;SDS011;43284;47.042;15.498;2023-09-18T01:49:09;8.60;;;5.70;;
57441;SDS011;43284;47.042;15.498;2023-09-18T01:51:34;11.98;;;6.43;;
57441;SDS011;43284;47.042;15.498;2023-09-18T01:54:00;9.35;;;5.90;;
57441;SDS011;43284;47.042;15.498;2023-09-18T01:56:26;10.32;;;6.03;;
57441;SDS011;43284;47.042;15.498;2023-09-18T01:58:51;11.23;;;6.80;;
57441;SDS011;43284;47.042;15.498;2023-09-18T02:01:17;10.80;;;6.68;;
57441;SDS011;43284;47.042;15.498;2023-09-18T02:03:42;9.98;;;6.75;;
57441;SDS011;43284;47.042;15.498;2023-09-18T02:06:08;10.07;;;6.47;;
57441;SDS011;43284;47.042;15.498;2023-09-18T02:08:34;10.38;;;6.22;;
57441;SDS011;43284;47.042;15.498;2023-09-18T02:11:00;9.52;;;6.28;;
57441;SDS011;43284;47.042;15.498;2023-09-18T02:13:25;10.30;;;5.63;;
57441;SDS011;43284;47.042;15.498;2023-09-18T02:15:51;9.05;;;5.90;;
57441;SDS011;43284;47.042;15.498;2023-09-18T02:18:17;12.38;;;6.10;;
57441;SDS011;43284;47.042;15.498;2023-09-18T02:20:44;10.13;;;5.85;;
57441;SDS011;43284;47.042;15.498;2023-09-18T02:23:12;10.70;;;5.78;;
57441;SDS011;43284;47.042;15.498;2023-09-18T02:25:38;9.57;;;5.97;;
57441;SDS011;43284;47.042;15.498;2023-09-18T02:28:08;12.50;;;6.30;;
57441;SDS011;43284;47.042;15.498;2023-09-18T02:30:33;10.30;;;6.47;;
57441;SDS011;43284;47.042;15.498;2023-09-18T02:32:59;10.80;;;6.38;;
57441;SDS011;43284;47.042;15.498;2023-09-18T02:35:25;11.70;;;6.35;;
57441;SDS011;43284;47.042;15.498;2023-09-18T02:37:51;12.70;;;6.45;;
57441;SDS011;43284;47.042;15.498;2023-09-18T02:40:17;12.85;;;5.68;;
57441;SDS011;43284;47.042;15.498;2023-09-18T02:42:42;9.07;;;5.88;;
57441;SDS011;43284;47.042;15.498;2023-09-18T02:45:08;10.38;;;6.07;;
57441;SDS011;43284;47.042;15.498;2023-09-18T02:47:34;8.70;;;5.85;;
57441;SDS011;43284;47.042;15.498;2023-09-18T02:50:02;7.65;;;4.88;;
57441;SDS011;43284;47.042;15.498;2023-09-18T02:52:30;12.05;;;5.78;;
57441;SDS011;43284;47.042;15.498;2023-09-18T02:54:56;8.55;;;5.88;;
57441;SDS011;43284;47.042;15.498;2023-09-18T02:57:21;9.82;;;5.90;;
57441;SDS011;43284;47.042;15.498;2023-09-18T02:59:47;11.73;;;5.93;;
57441;SDS011;43284;47.042;15.498;2023-09-18T03:02:12;11.13;;;6.47;;
57441;SDS011;43284;47.042;15.498;2023-09-18T03:04:38;10.82;;;6.15;;
57441;SDS011;43284;47.042;15.498;2023-09-18T03:07:05;9.05;;;5.93;;
57441;SDS011;43284;47.042;15.498;2023-09-18T03:09:31;12.43;;;6.72;;
57441;SDS011;43284;47.042;15.498;2023-09-18T03:11:56;12.23;;;6.82;;
57441;SDS011;43284;47.042;15.498;2023-09-18T03:14:22;14.57;;;7.72;;
57441;SDS011;43284;47.042;15.498;2023-09-18T03:16:48;16.33;;;7.97;;
57441;SDS011;43284;47.042;15.498;2023-09-18T03:19:13;18.00;;;7.68;;
57441;SDS011;43284;47.042;15.498;2023-09-18T03:21:39;14.82;;;7.22;;
57441;SDS011;43284;47.042;15.498;2023-09-18T03:24:04;11.82;;;6.68;;
57441;SDS011;43284;47.042;15.498;2023-09-18T03:26:30;9.40;;;6.47;;
57441;SDS011;43284;47.042;15.498;2023-09-18T03:28:56;11.13;;;6.10;;
57441;SDS011;43284;47.042;15.498;2023-09-18T03:31:21;16.80;;;8.18;;
57441;SDS011;43284;47.042;15.498;2023-09-18T03:33:47;9.52;;;6.55;;
57441;SDS011;43284;47.042;15.498;2023-09-18T03:36:12;12.73;;;7.43;;
57441;SDS011;43284;47.042;15.498;2023-09-18T03:38:38;11.65;;;6.80;;
57441;SDS011;43284;47.042;15.498;2023-09-18T03:41:04;12.88;;;6.82;;
57441;SDS011;43284;47.042;15.498;2023-09-18T03:43:30;11.32;;;7.03;;
57441;SDS011;43284;47.042;15.498;2023-09-18T03:46:02;11.80;;;6.95;;
57441;SDS011;43284;47.042;15.498;2023-09-18T03:48:32;11.43;;;6.75;;
57441;SDS011;43284;47.042;15.498;2023-09-18T03:51:05;10.10;;;5.90;;
57441;SDS011;43284;47.042;15.498;2023-09-18T03:53:34;10.48;;;6.13;;
57441;SDS011;43284;47.042;15.498;2023-09-18T03:56:01;15.88;;;6.75;;
57441;SDS011;43284;47.042;15.498;2023-09-18T03:58:26;10.60;;;5.97;;
57441;SDS011;43284;47.042;15.498;2023-09-18T04:00:52;10.18;;;5.63;;
57441;SDS011;43284;47.042;15.498;2023-09-18T04:03:18;9.80;;;6.38;;
57441;SDS011;43284;47.042;15.498;2023-09-18T04:05:44;9.65;;;5.82;;
57441;SDS011;43284;47.042;15.498;2023-09-18T04:08:10;8.32;;;5.82;;
57441;SDS011;43284;47.042;15.498;2023-09-18T04:10:36;9.68;;;6.13;;
57441;SDS011;43284;47.042;15.498;2023-09-18T04:13:02;9.32;;;5.82;;
57441;SDS011;43284;47.042;15.498;2023-09-18T04:15:28;11.27;;;6.70;;
57441;SDS011;43284;47.042;15.498;2023-09-18T04:17:55;12.23;;;6.32;;
57441;SDS011;43284;47.042;15.498;2023-09-18T04:20:21;9.80;;;5.90;;
57441;SDS011;43284;47.042;15.498;2023-09-18T04:22:48;11.60;;;6.05;;
57441;SDS011;43284;47.042;15.498;2023-09-18T04:25:47;8.30;;;5.57;;
57441;SDS011;43284;47.042;15.498;2023-09-18T04:28:14;9.25;;;5.82;;
57441;SDS011;43284;47.042;15.498;2023-09-18T04:30:41;10.95;;;6.45;;
57441;SDS011;43284;47.042;15.498;2023-09-18T04:33:07;10.77;;;6.25;;
57441;SDS011;43284;47.042;15.498;2023-09-18T04:35:32;11.15;;;6.78;;
57441;SDS011;43284;47.042;15.498;2023-09-18T04:37:58;9.95;;;5.75;;
57441;SDS011;43284;47.042;15.498;2023-09-18T04:40:24;12.57;;;6.78;;
57441;SDS011;43284;47.042;15.498;2023-09-18T04:42:51;11.00;;;6.80;;
57441;SDS011;43284;47.042;15.498;2023-09-18T04:45:18;8.98;;;6.00;;
57441;SDS011;43284;47.042;15.498;2023-09-18T04:47:43;8.95;;;5.72;;
57441;SDS011;43284;47.042;15.498;2023-09-18T04:50:09;8.75;;;5.82;;
57441;SDS011;43284;47.042;15.498;2023-09-18T04:52:38;12.38;;;6.97;;
57441;SDS011;43284;47.042;15.498;2023-09-18T04:55:05;11.50;;;6.50;;
57441;SDS011;43284;47.042;15.498;2023-09-18T04:57:33;10.07;;;6.03;;
57441;SDS011;43284;47.042;15.498;2023-09-18T04:59:59;9.10;;;5.80;;
57441;SDS011;43284;47.042;15.498;2023-09-18T05:02:25;10.27;;;6.22;;
57441;SDS011;43284;47.042;15.498;2023-09-18T05:04:51;12.02;;;6.80;;
57441;SDS011;43284;47.042;15.498;2023-09-18T05:07:17;11.85;;;6.35;;
57441;SDS011;43284;47.042;15.498;2023-09-18T05:09:42;10.90;;;7.07;;
57441;SDS011;43284;47.042;15.498;2023-09-18T05:12:08;10.30;;;6.25;;
57441;SDS011;43284;47.042;15.498;2023-09-18T05:14:39;15.73;;;6.25;;
57441;SDS011;43284;47.042;15.498;2023-09-18T05:17:06;10.98;;;6.38;;
57441;SDS011;43284;47.042;15.498;2023-09-18T05:19:34;9.55;;;5.88;;
57441;SDS011;43284;47.042;15.498;2023-09-18T05:21:59;10.95;;;7.03;;
57441;SDS011;43284;47.042;15.498;2023-09-18T05:24:25;9.73;;;5.95;;
57441;SDS011;43284;47.042;15.498;2023-09-18T05:26:52;14.23;;;6.32;;
57441;SDS011;43284;47.042;15.498;2023-09-18T05:29:18;9.02;;;6.18;;
57441;SDS011;43284;47.042;15.498;2023-09-18T05:31:45;9.73;;;5.93;;
57441;SDS011;43284;47.042;15.498;2023-09-18T05:34:11;12.38;;;6.45;;
57441;SDS011;43284;47.042;15.498;2023-09-18T05:36:37;10.25;;;6.47;;
57441;SDS011;43284;47.042;15.498;2023-09-18T05:39:03;15.80;;;7.32;;
57441;SDS011;43284;47.042;15.498;2023-09-18T05:41:29;11.98;;;6.90;;
57441;SDS011;43284;47.042;15.498;2023-09-18T05:43:56;10.40;;;6.10;;
57441;SDS011;43284;47.042;15.498;2023-09-18T05:46:21;13.80;;;7.25;;
57441;SDS011;43284;47.042;15.498;2023-09-18T05:48:47;11.85;;;6.97;;
57441;SDS011;43284;47.042;15.498;2023-09-18T05:51:12;11.13;;;7.18;;
57441;SDS011;43284;47.042;15.498;2023-09-18T05:53:38;18.65;;;7.13;;
57441;SDS011;43284;47.042;15.498;2023-09-18T05:56:04;14.05;;;7.25;;
57441;SDS011;43284;47.042;15.498;2023-09-18T05:58:31;14.95;;;7.60;;
57441;SDS011;43284;47.042;15.498;2023-09-18T06:00:58;13.30;;;7.20;;
57441;SDS011;43284;47.042;15.498;2023-09-18T06:03:26;11.38;;;6.85;;
57441;SDS011;43284;47.042;15.498;2023-09-18T06:05:52;13.20;;;7.38;;
57441;SDS011;43284;47.042;15.498;2023-09-18T06:08:18;15.25;;;7.63;;
57441;SDS011;43284;47.042;15.498;2023-09-18T06:10:44;14.15;;;8.00;;
57441;SDS011;43284;47.042;15.498;2023-09-18T06:13:10;20.60;;;8.90;;
57441;SDS011;43284;47.042;15.498;2023-09-18T06:15:36;15.40;;;9.02;;
57441;SDS011;43284;47.042;15.498;2023-09-18T06:18:01;15.93;;;8.77;;
57441;SDS011;43284;47.042;15.498;2023-09-18T06:20:28;18.35;;;9.20;;
57441;SDS011;43284;47.042;15.498;2023-09-18T06:22:54;19.30;;;10.35;;
57441;SDS011;43284;47.042;15.498;2023-09-18T06:25:19;18.63;;;9.77;;
57441;SDS011;43284;47.042;15.498;2023-09-18T06:27:45;17.60;;;9.13;;
57441;SDS011;43284;47.042;15.498;2023-09-18T06:30:11;18.73;;;9.98;;
57441;SDS011;43284;47.042;15.498;2023-09-18T06:32:37;16.40;;;9.55;;
57441;SDS011;43284;47.042;15.498;2023-09-18T06:35:03;16.58;;;9.43;;
57441;SDS011;43284;47.042;15.498;2023-09-18T06:37:28;23.65;;;11.32;;
57441;SDS011;43284;47.042;15.498;2023-09-18T06:39:54;21.52;;;9.73;;
57441;SDS011;43284;47.042;15.498;2023-09-18T06:42:21;18.67;;;10.48;;
57441;SDS011;43284;47.042;15.498;2023-09-18T06:44:47;17.08;;;10.30;;
57441;SDS011;43284;47.042;15.498;2023-09-18T06:47:12;18.90;;;10.40;;
57441;SDS011;43284;47.042;15.498;2023-09-18T06:49:39;19.55;;;10.85;;
57441;SDS011;43284;47.042;15.498;2023-09-18T06:52:07;15.80;;;9.45;;
57441;SDS011;43284;47.042;15.498;2023-09-18T06:54:33;15.30;;;9.82;;
57441;SDS011;43284;47.042;15.498;2023-09-18T06:56:59;20.02;;;10.30;;
57441;SDS011;43284;47.042;15.498;2023-09-18T06:59:24;17.88;;;10.15;;
57441;SDS011;43284;47.042;15.498;2023-09-18T07:01:50;18.55;;;9.85;;
57441;SDS011;43284;47.042;15.498;2023-09-18T07:04:15;16.67;;;9.13;;
57441;SDS011;43284;47.042;15.498;2023-09-18T07:06:41;15.07;;;9.20;;
57441;SDS011;43284;47.042;15.498;2023-09-18T07:09:06;17.27;;;9.60;;
57441;SDS011;43284;47.042;15.498;2023-09-18T07:11:35;17.13;;;10.15;;
57441;SDS011;43284;47.042;15.498;2023-09-18T07:14:01;20.17;;;10.00;;
57441;SDS011;43284;47.042;15.498;2023-09-18T07:16:31;17.15;;;9.70;;
57441;SDS011;43284;47.042;15.498;2023-09-18T07:18:57;22.38;;;11.10;;
57441;SDS011;43284;47.042;15.498;2023-09-18T07:21:23;18.65;;;10.38;;
57441;SDS011;43284;47.042;15.498;2023-09-18T07:23:48;17.45;;;10.85;;
57441;SDS011;43284;47.042;15.498;2023-09-18T07:26:14;20.95;;;10.63;;
57441;SDS011;43284;47.042;15.498;2023-09-18T07:28:40;18.30;;;10.25;;
57441;SDS011;43284;47.042;15.498;2023-09-18T07:31:07;16.73;;;9.85;;
57441;SDS011;43284;47.042;15.498;2023-09-18T07:33:34;18.27;;;9.88;;
57441;SDS011;43284;47.042;15.498;2023-09-18T07:36:00;14.13;;;8.93;;
57441;SDS011;43284;47.042;15.498;2023-09-18T07:38:26;23.08;;;11.10;;
57441;SDS011;43284;47.042;15.498;2023-09-18T07:40:52;17.25;;;9.43;;
57441;SDS011;43284;47.042;15.498;2023-09-18T07:43:17;16.33;;;10.43;;
57441;SDS011;43284;47.042;15.498;2023-09-18T07:45:43;13.63;;;8.45;;
57441;SDS011;43284;47.042;15.498;2023-09-18T07:48:08;15.52;;;8.63;;
57441;SDS011;43284;47.042;15.498;2023-09-18T07:50:34;14.20;;;8.40;;
57441;SDS011;43284;47.042;15.498;2023-09-18T07:53:01;13.85;;;7.97;;
57441;SDS011;43284;47.042;15.498;2023-09-18T07:55:27;20.02;;;9.45;;
57441;SDS011;43284;47.042;15.498;2023-09-18T07:57:54;18.60;;;8.25;;
57441;SDS011;43284;47.042;15.498;2023-09-18T08:00:20;15.57;;;9.10;;
57441;SDS011;43284;47.042;15.498;2023-09-18T08:02:47;15.02;;;9.32;;
57441;SDS011;43284;47.042;15.498;2023-09-18T08:05:15;15.05;;;8.32;;
57441;SDS011;43284;47.042;15.498;2023-09-18T08:07:41;13.02;;;7.72;;
57441;SDS011;43284;47.042;15.498;2023-09-18T08:10:06;15.23;;;8.88;;
57441;SDS011;43284;47.042;15.498;2023-09-18T08:12:35;13.02;;;7.43;;
57441;SDS011;43284;47.042;15.498;2023-09-18T08:15:01;13.65;;;7.63;;
57441;SDS011;43284;47.042;15.498;2023-09-18T08:17:28;13.25;;;8.50;;
57441;SDS011;43284;47.042;15.498;2023-09-18T08:19:53;12.65;;;7.80;;
57441;SDS011;43284;47.042;15.498;2023-09-18T08:22:20;13.27;;;7.78;;
57441;SDS011;43284;47.042;15.498;2023-09-18T08:24:46;12.05;;;7.18;;
57441;SDS011;43284;47.042;15.498;2023-09-18T08:27:16;12.45;;;7.35;;
57441;SDS011;43284;47.042;15.498;2023-09-18T08:29:44;11.43;;;7.50;;
57441;SDS011;43284;47.042;15.498;2023-09-18T08:32:11;15.63;;;8.30;;
57441;SDS011;43284;47.042;15.498;2023-09-18T08:34:36;10.40;;;6.60;;
57441;SDS011;43284;47.042;15.498;2023-09-18T08:37:02;16.92;;;8.55;;
57441;SDS011;43284;47.042;15.498;2023-09-18T08:39:28;11.93;;;7.30;;
57441;SDS011;43284;47.042;15.498;2023-09-18T08:42:03;13.63;;;7.85;;
57441;SDS011;43284;47.042;15.498;2023-09-18T08:44:29;14.50;;;7.80;;
57441;SDS011;43284;47.042;15.498;2023-09-18T08:46:56;12.05;;;7.53;;
57441;SDS011;43284;47.042;15.498;2023-09-18T08:49:25;10.40;;;7.15;;
57441;SDS011;43284;47.042;15.498;2023-09-18T08:51:53;10.80;;;7.18;;
57441;SDS011;43284;47.042;15.498;2023-09-18T08:54:20;10.30;;;6.93;;
57441;SDS011;43284;47.042;15.498;2023-09-18T08:56:48;9.88;;;6.57;;
57441;SDS011;43284;47.042;15.498;2023-09-18T08:59:15;11.32;;;6.78;;
57441;SDS011;43284;47.042;15.498;2023-09-18T09:01:41;11.93;;;6.28;;
57441;SDS011;43284;47.042;15.498;2023-09-18T09:04:07;10.50;;;6.80;;
57441;SDS011;43284;47.042;15.498;2023-09-18T09:06:32;13.52;;;6.70;;
57441;SDS011;43284;47.042;15.498;2023-09-18T09:08:58;9.20;;;6.55;;
57441;SDS011;43284;47.042;15.498;2023-09-18T09:11:24;12.35;;;7.30;;
57441;SDS011;43284;47.042;15.498;2023-09-18T09:14:08;11.23;;;6.85;;
57441;SDS011;43284;47.042;15.498;2023-09-18T09:16:46;8.75;;;6.13;;
57441;SDS011;43284;47.042;15.498;2023-09-18T09:19:18;10.68;;;6.68;;
57441;SDS011;43284;47.042;15.498;2023-09-18T09:21:52;9.38;;;6.18;;
57441;SDS011;43284;47.042;15.498;2023-09-18T09:24:19;12.70;;;7.45;;
57441;SDS011;43284;47.042;15.498;2023-09-18T09:27:02;12.82;;;7.15;;
57441;SDS011;43284;47.042;15.498;2023-09-18T09:29:28;10.68;;;6.75;;
57441;SDS011;43284;47.042;15.498;2023-09-18T09:31:54;9.73;;;6.68;;
57441;SDS011;43284;47.042;15.498;2023-09-18T09:34:24;9.80;;;6.13;;
57441;SDS011;43284;47.042;15.498;2023-09-18T09:36:55;11.23;;;6.53;;
57441;SDS011;43284;47.042;15.498;2023-09-18T09:39:22;9.07;;;6.10;;
57441;SDS011;43284;47.042;15.498;2023-09-18T09:41:52;8.63;;;5.93;;
57441;SDS011;43284;47.042;15.498;2023-09-18T09:44:18;8.13;;;5.70;;
57441;SDS011;43284;47.042;15.498;2023-09-18T09:46:49;11.15;;;6.22;;
57441;SDS011;43284;47.042;15.498;2023-09-18T09:49:16;9.63;;;5.88;;
57441;SDS011;43284;47.042;15.498;2023-09-18T09:51:44;9.23;;;5.45;;
57441;SDS011;43284;47.042;15.498;2023-09-18T09:54:11;7.90;;;5.38;;
57441;SDS011;43284;47.042;15.498;2023-09-18T09:56:47;8.27;;;5.95;;
57441;SDS011;43284;47.042;15.498;2023-09-18T09:59:15;8.25;;;5.72;;
57441;SDS011;43284;47.042;15.498;2023-09-18T10:01:43;6.75;;;5.35;;
57441;SDS011;43284;47.042;15.498;2023-09-18T10:04:12;9.45;;;6.15;;
57441;SDS011;43284;47.042;15.498;2023-09-18T10:06:43;8.23;;;5.63;;
57441;SDS011;43284;47.042;15.498;2023-09-18T10:09:16;10.10;;;5.15;;
57441;SDS011;43284;47.042;15.498;2023-09-18T10:11:45;9.68;;;5.45;;
57441;SDS011;43284;47.042;15.498;2023-09-18T10:14:15;7.25;;;5.10;;
57441;SDS011;43284;47.042;15.498;2023-09-18T10:16:53;9.50;;;5.65;;
57441;SDS011;43284;47.042;15.498;2023-09-18T10:19:25;7.07;;;4.93;;
57441;SDS011;43284;47.042;15.498;2023-09-18T10:24:36;13.15;;;5.75;;
57441;SDS011;43284;47.042;15.498;2023-09-18T10:27:04;10.07;;;5.50;;
57441;SDS011;43284;47.042;15.498;2023-09-18T10:29:34;8.15;;;5.47;;
57441;SDS011;43284;47.042;15.498;2023-09-18T10:32:05;7.00;;;5.07;;
57441;SDS011;43284;47.042;15.498;2023-09-18T10:37:01;7.88;;;5.25;;
57441;SDS011;43284;47.042;15.498;2023-09-18T10:39:34;6.80;;;5.05;;
57441;SDS011;43284;47.042;15.498;2023-09-18T10:42:02;9.25;;;4.85;;
57441;SDS011;43284;47.042;15.498;2023-09-18T10:44:29;6.78;;;4.88;;
57441;SDS011;43284;47.042;15.498;2023-09-18T10:46:58;7.53;;;5.25;;
57441;SDS011;43284;47.042;15.498;2023-09-18T10:49:25;8.57;;;5.68;;
57441;SDS011;43284;47.042;15.498;2023-09-18T10:51:54;7.00;;;5.25;;
57441;SDS011;43284;47.042;15.498;2023-09-18T10:54:21;9.40;;;6.03;;
57441;SDS011;43284;47.042;15.498;2023-09-18T10:56:50;10.20;;;5.50;;
57441;SDS011;43284;47.042;15.498;2023-09-18T10:59:16;11.55;;;6.20;;
57441;SDS011;43284;47.042;15.498;2023-09-18T11:01:43;8.63;;;6.13;;
57441;SDS011;43284;47.042;15.498;2023-09-18T11:04:08;7.32;;;5.38;;
57441;SDS011;43284;47.042;15.498;2023-09-18T11:20:05;13.00;;;6.30;;
57441;SDS011;43284;47.042;15.498;2023-09-18T11:22:34;9.30;;;5.75;;
57441;SDS011;43284;47.042;15.498;2023-09-18T11:27:59;9.43;;;5.90;;
57441;SDS011;43284;47.042;15.498;2023-09-18T11:30:27;9.85;;;6.28;;
57441;SDS011;43284;47.042;15.498;2023-09-18T11:32:54;8.15;;;5.93;;
57441;SDS011;43284;47.042;15.498;2023-09-18T11:35:20;8.93;;;6.32;;
57441;SDS011;43284;47.042;15.498;2023-09-18T11:37:46;8.95;;;6.10;;
57441;SDS011;43284;47.042;15.498;2023-09-18T11:40:28;11.18;;;6.28;;
57441;SDS011;43284;47.042;15.498;2023-09-18T11:45:51;8.93;;;6.28;;
57441;SDS011;43284;47.042;15.498;2023-09-18T11:48:18;12.32;;;5.90;;
57441;SDS011;43284;47.042;15.498;2023-09-18T11:50:45;7.97;;;5.70;;
57441;SDS011;43284;47.042;15.498;2023-09-18T11:53:13;8.43;;;5.88;;
57441;SDS011;43284;47.042;15.498;2023-09-18T11:55:39;9.52;;;5.85;;
57441;SDS011;43284;47.042;15.498;2023-09-18T11:58:05;6.78;;;5.20;;
57441;SDS011;43284;47.042;15.498;2023-09-18T12:00:34;8.63;;;5.15;;
57441;SDS011;43284;47.042;15.498;2023-09-18T12:03:17;7.85;;;5.22;;
57441;SDS011;43284;47.042;15.498;2023-09-18T12:05:58;10.77;;;5.90;;
57441;SDS011;43284;47.042;15.498;2023-09-18T12:08:26;10.10;;;5.38;;
57441;SDS011;43284;47.042;15.498;2023-09-18T12:10:55;8.43;;;5.85;;
57441;SDS011;43284;47.042;15.498;2023-09-18T12:13:20;9.43;;;5.78;;
57441;SDS011;43284;47.042;15.498;2023-09-18T12:15:47;9.25;;;5.45;;
57441;SDS011;43284;47.042;15.498;2023-09-18T12:18:14;8.30;;;5.32;;
57441;SDS011;43284;47.042;15.498;2023-09-18T12:20:47;6.70;;;4.78;;
57441;SDS011;43284;47.042;15.498;2023-09-18T12:23:14;6.85;;;5.05;;
57441;SDS011;43284;47.042;15.498;2023-09-18T12:25:40;7.80;;;4.90;;
57441;SDS011;43284;47.042;15.498;2023-09-18T12:28:06;9.10;;;5.47;;
57441;SDS011;43284;47.042;15.498;2023-09-18T12:30:33;8.63;;;5.63;;
57441;SDS011;43284;47.042;15.498;2023-09-18T12:32:59;8.90;;;5.55;;
57441;SDS011;43284;47.042;15.498;2023-09-18T12:35:29;8.52;;;5.20;;
57441;SDS011;43284;47.042;15.498;2023-09-18T12:37:58;7.72;;;5.50;;
57441;SDS011;43284;47.042;15.498;2023-09-18T12:40:29;7.80;;;5.38;;
57441;SDS011;43284;47.042;15.498;2023-09-18T12:42:55;10.95;;;5.25;;
57441;SDS011;43284;47.042;15.498;2023-09-18T12:45:23;9.95;;;5.10;;
57441;SDS011;43284;47.042;15.498;2023-09-18T12:47:50;6.43;;;4.70;;
57441;SDS011;43284;47.042;15.498;2023-09-18T12:50:16;9.65;;;5.40;;
57441;SDS011;43284;47.042;15.498;2023-09-18T12:52:41;9.25;;;5.50;;
57441;SDS011;43284;47.042;15.498;2023-09-18T12:55:08;10.40;;;5.00;;
57441;SDS011;43284;47.042;15.498;2023-09-18T12:57:34;9.73;;;5.60;;
57441;SDS011;43284;47.042;15.498;2023-09-18T12:59:59;7.30;;;5.35;;
57441;SDS011;43284;47.042;15.498;2023-09-18T13:02:36;9.45;;;5.32;;
57441;SDS011;43284;47.042;15.498;2023-09-18T13:05:03;12.48;;;5.05;;
57441;SDS011;43284;47.042;15.498;2023-09-18T13:07:29;8.25;;;4.93;;
57441;SDS011;43284;47.042;15.498;2023-09-18T13:09:58;9.68;;;5.55;;
57441;SDS011;43284;47.042;15.498;2023-09-18T13:12:25;14.00;;;5.38;;
57441;SDS011;43284;47.042;15.498;2023-09-18T13:14:57;7.60;;;5.20;;
57441;SDS011;43284;47.042;15.498;2023-09-18T13:17:36;13.48;;;5.65;;
57441;SDS011;43284;47.042;15.498;2023-09-18T13:20:09;9.88;;;5.32;;
57441;SDS011;43284;47.042;15.498;2023-09-18T13:22:39;12.98;;;5.15;;
57441;SDS011;43284;47.042;15.498;2023-09-18T13:25:09;8.20;;;5.50;;
57441;SDS011;43284;47.042;15.498;2023-09-18T13:27:38;10.07;;;5.22;;
57441;SDS011;43284;47.042;15.498;2023-09-18T13:30:08;10.82;;;4.78;;
57441;SDS011;43284;47.042;15.498;2023-09-18T13:32:34;9.98;;;5.18;;
57441;SDS011;43284;47.042;15.498;2023-09-18T13:35:03;9.73;;;5.13;;
57441;SDS011;43284;47.042;15.498;2023-09-18T13:37:34;10.00;;;5.28;;
57441;SDS011;43284;47.042;15.498;2023-09-18T13:40:00;11.02;;;5.03;;
57441;SDS011;43284;47.042;15.498;2023-09-18T13:42:31;10.48;;;5.10;;
57441;SDS011;43284;47.042;15.498;2023-09-18T13:44:58;7.47;;;5.07;;
57441;SDS011;43284;47.042;15.498;2023-09-18T13:47:27;8.35;;;5.15;;
57441;SDS011;43284;47.042;15.498;2023-09-18T13:49:53;10.32;;;5.72;;
57441;SDS011;43284;47.042;15.498;2023-09-18T13:52:24;11.75;;;5.15;;
57441;SDS011;43284;47.042;15.498;2023-09-18T13:54:53;11.10;;;5.18;;
57441;SDS011;43284;47.042;15.498;2023-09-18T13:57:19;9.52;;;5.45;;
57441;SDS011;43284;47.042;15.498;2023-09-18T13:59:45;10.00;;;5.32;;
57441;SDS011;43284;47.042;15.498;2023-09-18T14:02:12;13.27;;;5.45;;
57441;SDS011;43284;47.042;15.498;2023-09-18T14:04:38;8.93;;;4.93;;
57441;SDS011;43284;47.042;15.498;2023-09-18T14:07:05;11.80;;;5.97;;
57441;SDS011;43284;47.042;15.498;2023-09-18T14:09:31;10.65;;;6.05;;
57441;SDS011;43284;47.042;15.498;2023-09-18T14:11:56;9.02;;;5.63;;
57441;SDS011;43284;47.042;15.498;2023-09-18T14:14:22;10.25;;;5.45;;
57441;SDS011;43284;47.042;15.498;2023-09-18T14:16:48;7.85;;;4.50;;
57441;SDS011;43284;47.042;15.498;2023-09-18T14:19:15;11.02;;;5.43;;
57441;SDS011;43284;47.042;15.498;2023-09-18T14:21:41;8.73;;;5.50;;
57441;SDS011;43284;47.042;15.498;2023-09-18T14:24:08;11.73;;;5.55;;
57441;SDS011;43284;47.042;15.498;2023-09-18T14:26:33;13.63;;;5.40;;
57441;SDS011;43284;47.042;15.498;2023-09-18T14:29:05;13.07;;;5.35;;
57441;SDS011;43284;47.042;15.498;2023-09-18T14:31:32;6.47;;;4.90;;
57441;SDS011;43284;47.042;15.498;2023-09-18T14:33:58;11.32;;;5.47;;
57441;SDS011;43284;47.042;15.498;2023-09-18T14:36:25;9.85;;;5.53;;
57441;SDS011;43284;47.042;15.498;2023-09-18T14:38:51;10.10;;;5.50;;
57441;SDS011;43284;47.042;15.498;2023-09-18T14:41:17;10.23;;;5.50;;
57441;SDS011;43284;47.042;15.498;2023-09-18T14:43:44;9.32;;;5.18;;
57441;SDS011;43284;47.042;15.498;2023-09-18T14:46:10;8.50;;;5.32;;
57441;SDS011;43284;47.042;15.498;2023-09-18T14:48:36;9.60;;;4.95;;
57441;SDS011;43284;47.042;15.498;2023-09-18T14:51:01;8.07;;;5.13;;
57441;SDS011;43284;47.042;15.498;2023-09-18T14:53:27;7.53;;;5.18;;